createdAt,value
2023-03-29T00:01:51.997Z,14.85
2023-03-29T00:03:54.213Z,14.60
2023-03-29T00:06:03.038Z,16.67
2023-03-29T00:08:04.742Z,11.70
2023-03-29T00:10:06.482Z,15.98
2023-03-29T00:12:07.966Z,16.48
2023-03-29T00:14:09.437Z,14.63
2023-03-29T00:16:10.891Z,15.38
2023-03-29T00:18:12.325Z,15.43
2023-03-29T00:20:14.134Z,16.65
2023-03-29T00:22:15.986Z,12.40
2023-03-29T00:24:17.489Z,11.70
2023-03-29T00:26:19.002Z,15.10
2023-03-29T00:28:20.414Z,15.85
2023-03-29T00:30:21.790Z,14.95
2023-03-29T00:32:23.329Z,17.92
2023-03-29T00:34:26.323Z,15.95
2023-03-29T00:36:27.831Z,12.73
2023-03-29T00:38:29.286Z,21.42
2023-03-29T00:40:30.874Z,21.23
2023-03-29T00:42:32.272Z,21.50
2023-03-29T00:44:52.282Z,16.80
2023-03-29T00:46:53.961Z,16.02
2023-03-29T00:48:57.871Z,17.17
2023-03-29T00:51:10.281Z,20.73
2023-03-29T00:53:13.166Z,18.15
2023-03-29T00:55:17.132Z,12.57
2023-03-29T00:57:19.665Z,15.20
2023-03-29T00:59:25.382Z,18.58
2023-03-29T01:01:34.210Z,14.55
2023-03-29T01:03:37.997Z,15.13
2023-03-29T01:05:41.691Z,13.70
2023-03-29T01:07:43.083Z,15.48
2023-03-29T01:09:47.974Z,19.83
2023-03-29T01:11:54.620Z,18.83
2023-03-29T01:14:02.695Z,21.88
2023-03-29T01:16:04.668Z,17.63
2023-03-29T01:18:06.555Z,18.27
2023-03-29T01:20:17.601Z,15.63
2023-03-29T01:22:22.536Z,17.23
2023-03-29T01:24:26.732Z,14.10
2023-03-29T01:26:34.218Z,16.52
2023-03-29T01:28:38.226Z,16.05
2023-03-29T01:30:46.659Z,17.23
2023-03-29T01:32:52.523Z,15.83
2023-03-29T01:34:59.703Z,11.73
2023-03-29T01:37:04.859Z,17.75
2023-03-29T01:39:07.203Z,15.02
2023-03-29T01:41:08.772Z,14.60
2023-03-29T01:43:28.503Z,16.67
2023-03-29T01:45:48.853Z,18.02
2023-03-29T01:47:50.365Z,17.42
2023-03-29T01:50:15.587Z,14.27
2023-03-29T01:52:18.921Z,17.83
2023-03-29T01:54:30.985Z,20.92
2023-03-29T01:56:36.931Z,14.43
2023-03-29T01:58:44.772Z,20.02
2023-03-29T02:00:46.762Z,21.02
2023-03-29T02:02:49.101Z,19.58
2023-03-29T02:04:52.365Z,14.98
2023-03-29T02:06:54.687Z,21.95
2023-03-29T02:08:56.254Z,20.38
2023-03-29T02:10:57.656Z,20.80
2023-03-29T02:12:59.588Z,17.15
2023-03-29T02:15:01.232Z,19.42
2023-03-29T02:17:32.115Z,15.32
2023-03-29T02:19:34.436Z,19.75
2023-03-29T02:21:42.747Z,17.45
2023-03-29T02:23:45.863Z,14.98
2023-03-29T02:25:47.403Z,13.27
2023-03-29T02:27:48.995Z,16.80
2023-03-29T02:29:50.605Z,15.82
2023-03-29T02:31:55.301Z,19.02
2023-03-29T02:34:07.932Z,22.33
2023-03-29T02:36:13.624Z,24.95
2023-03-29T02:38:17.207Z,24.63
2023-03-29T02:40:20.059Z,25.25
2023-03-29T02:42:21.851Z,22.35
2023-03-29T02:44:26.229Z,25.90
2023-03-29T02:46:28.009Z,18.05
2023-03-29T02:48:31.326Z,19.42
2023-03-29T02:50:36.290Z,19.98
2023-03-29T02:52:43.536Z,23.23
2023-03-29T02:54:47.296Z,40.92
2023-03-29T02:56:49.882Z,41.72
2023-03-29T02:58:51.368Z,34.55
2023-03-29T03:00:53.401Z,18.70
2023-03-29T03:02:55.295Z,21.73
2023-03-29T03:04:57.512Z,22.15
2023-03-29T03:06:58.887Z,20.40
2023-03-29T03:09:00.300Z,18.45
2023-03-29T03:11:01.937Z,21.27
2023-03-29T03:13:03.660Z,21.95
2023-03-29T03:15:05.571Z,17.50
2023-03-29T03:17:06.995Z,20.50
2023-03-29T03:19:09.295Z,19.52
2023-03-29T03:21:11.502Z,18.83
2023-03-29T03:23:12.934Z,18.92
2023-03-29T03:25:19.579Z,21.15
2023-03-29T03:27:21.273Z,27.02
2023-03-29T03:29:23.307Z,21.35
2023-03-29T03:31:25.240Z,19.25
2023-03-29T03:33:27.619Z,23.42
2023-03-29T03:35:29.667Z,24.25
2023-03-29T03:37:31.361Z,24.65
2023-03-29T03:39:33.415Z,22.75
2023-03-29T03:41:34.818Z,21.77
2023-03-29T03:43:36.343Z,19.20
2023-03-29T03:45:37.773Z,19.48
2023-03-29T03:47:39.366Z,17.80
2023-03-29T03:49:41.253Z,16.33
2023-03-29T03:51:45.492Z,20.95
2023-03-29T03:53:47.177Z,16.48
2023-03-29T03:55:49.332Z,17.50
2023-03-29T03:57:52.047Z,15.98
2023-03-29T03:59:53.539Z,18.40
2023-03-29T04:01:55.034Z,15.85
2023-03-29T04:03:56.523Z,22.50
2023-03-29T04:06:01.665Z,17.52
2023-03-29T04:08:03.258Z,15.55
2023-03-29T04:10:06.290Z,19.42
2023-03-29T04:12:07.734Z,16.73
2023-03-29T04:14:09.472Z,17.35
2023-03-29T04:16:11.048Z,20.60
2023-03-29T04:18:12.624Z,26.40
2023-03-29T04:20:14.953Z,31.05
2023-03-29T04:22:16.545Z,55.20
2023-03-29T04:24:17.999Z,30.10
2023-03-29T04:26:19.452Z,74.80
2023-03-29T04:28:21.479Z,100.72
2023-03-29T04:30:22.990Z,125.57
2023-03-29T04:32:24.873Z,117.43
2023-03-29T04:34:26.366Z,118.72
2023-03-29T04:36:28.005Z,112.15
2023-03-29T04:38:29.436Z,78.22
2023-03-29T04:40:30.940Z,73.28
2023-03-29T04:42:32.398Z,71.93
2023-03-29T04:44:34.180Z,67.55
2023-03-29T04:46:35.743Z,65.15
2023-03-29T04:48:37.627Z,48.65
2023-03-29T04:50:39.147Z,56.20
2023-03-29T04:52:41.006Z,46.92
2023-03-29T04:54:42.434Z,39.97
2023-03-29T04:56:44.217Z,41.40
2023-03-29T04:58:45.676Z,33.28
2023-03-29T05:00:47.219Z,25.35
2023-03-29T05:02:48.626Z,24.23
2023-03-29T05:04:50.550Z,29.58
2023-03-29T05:06:52.113Z,28.13
2023-03-29T05:08:53.520Z,30.08
2023-03-29T05:10:54.964Z,37.42
2023-03-29T05:12:56.985Z,38.65
2023-03-29T05:14:58.424Z,38.03
2023-03-29T05:16:59.825Z,55.30
2023-03-29T05:19:01.268Z,48.53
2023-03-29T05:21:02.961Z,60.17
2023-03-29T05:23:04.491Z,41.42
2023-03-29T05:25:06.678Z,34.38
2023-03-29T05:27:08.119Z,38.05
2023-03-29T05:29:09.572Z,53.53
2023-03-29T05:31:11.083Z,52.63
2023-03-29T05:33:12.819Z,60.92
2023-03-29T05:35:14.436Z,54.00
2023-03-29T05:37:15.877Z,52.70
2023-03-29T05:39:17.564Z,55.20
2023-03-29T05:41:19.034Z,43.83
2023-03-29T05:43:20.972Z,49.58
2023-03-29T05:45:23.030Z,43.78
2023-03-29T05:47:24.852Z,33.15
2023-03-29T05:49:27.224Z,33.97
2023-03-29T05:51:28.878Z,30.73
2023-03-29T05:53:30.426Z,19.10
2023-03-29T05:55:31.949Z,19.02
2023-03-29T05:57:35.629Z,19.45
2023-03-29T05:59:37.269Z,21.10
2023-03-29T06:01:40.151Z,34.35
2023-03-29T06:03:42.287Z,37.88
2023-03-29T06:05:43.808Z,23.17
2023-03-29T06:07:45.497Z,47.28
2023-03-29T06:09:47.731Z,47.30
2023-03-29T06:11:49.146Z,33.20
2023-03-29T06:13:50.882Z,45.30
2023-03-29T06:15:52.265Z,37.00
2023-03-29T06:17:53.779Z,83.60
2023-03-29T06:19:55.368Z,28.13
2023-03-29T06:21:57.028Z,107.40
2023-03-29T06:23:58.763Z,98.65
2023-03-29T06:26:00.337Z,96.82
2023-03-29T06:28:01.795Z,53.35
2023-03-29T06:30:06.752Z,42.90
2023-03-29T06:32:08.431Z,233.05
2023-03-29T06:34:09.944Z,121.75
2023-03-29T06:36:11.974Z,104.18
2023-03-29T06:38:13.900Z,47.40
2023-03-29T06:40:17.546Z,60.35
2023-03-29T06:42:28.800Z,35.10
2023-03-29T06:44:30.473Z,22.67
2023-03-29T06:46:32.480Z,40.83
2023-03-29T06:48:33.931Z,26.52
2023-03-29T06:50:35.701Z,19.60
2023-03-29T06:52:37.756Z,23.15
2023-03-29T06:54:39.444Z,18.88
2023-03-29T06:56:41.023Z,14.20
2023-03-29T06:58:42.536Z,22.75
2023-03-29T07:00:43.963Z,18.73
2023-03-29T07:02:46.609Z,31.95
2023-03-29T07:04:48.991Z,19.17
2023-03-29T07:07:01.384Z,11.85
2023-03-29T07:09:06.325Z,14.82
2023-03-29T07:11:08.285Z,11.98
2023-03-29T07:13:13.950Z,9.50
2023-03-29T07:15:15.564Z,9.45
2023-03-29T07:17:20.669Z,11.48
2023-03-29T07:19:24.294Z,17.60
2023-03-29T07:21:26.583Z,11.30
2023-03-29T07:23:27.978Z,13.65
2023-03-29T07:25:31.359Z,23.05
2023-03-29T07:27:33.427Z,22.75
2023-03-29T07:29:35.784Z,11.52
2023-03-29T07:31:40.771Z,21.75
2023-03-29T07:33:42.902Z,8.23
2023-03-29T07:35:47.802Z,7.20
2023-03-29T07:37:49.737Z,8.50
2023-03-29T07:39:54.411Z,6.20
2023-03-29T07:41:57.696Z,6.13
2023-03-29T07:44:04.470Z,8.43
2023-03-29T07:46:06.624Z,4.70
2023-03-29T07:48:08.600Z,4.05
2023-03-29T07:50:10.261Z,5.68
2023-03-29T07:52:15.282Z,13.18
2023-03-29T07:54:16.880Z,10.30
2023-03-29T07:56:18.814Z,6.03
2023-03-29T07:58:21.680Z,5.30
2023-03-29T08:00:25.043Z,5.03
2023-03-29T08:02:27.503Z,3.83
2023-03-29T08:04:29.581Z,4.47
2023-03-29T08:06:31.134Z,5.22
2023-03-29T08:08:32.545Z,5.00
2023-03-29T08:10:34.373Z,6.43
2023-03-29T08:12:36.370Z,5.53
2023-03-29T08:14:38.969Z,3.50
2023-03-29T08:16:40.787Z,3.13
2023-03-29T08:18:42.375Z,3.58
2023-03-29T08:20:43.889Z,2.42
2023-03-29T08:22:45.553Z,4.90
2023-03-29T08:24:56.162Z,3.45
2023-03-29T08:26:57.565Z,1.30
2023-03-29T08:28:59.016Z,4.63
2023-03-29T08:31:00.844Z,2.80
2023-03-29T08:33:02.613Z,3.75
2023-03-29T08:35:05.135Z,2.03
2023-03-29T08:37:06.638Z,3.60
2023-03-29T08:39:08.088Z,3.42
2023-03-29T08:41:28.287Z,5.35
2023-03-29T08:43:49.958Z,3.60
2023-03-29T08:46:02.228Z,5.90
2023-03-29T08:48:12.483Z,4.40
2023-03-29T08:50:14.550Z,4.18
2023-03-29T08:52:22.083Z,9.48
2023-03-29T08:54:25.523Z,7.43
2023-03-29T08:56:27.963Z,7.07
2023-03-29T08:58:31.563Z,6.55
2023-03-29T09:00:53.344Z,3.88
2023-03-29T09:02:57.535Z,3.13
2023-03-29T09:05:06.041Z,4.53
2023-03-29T09:07:10.915Z,3.88
2023-03-29T09:09:17.315Z,4.25
2023-03-29T09:11:24.982Z,4.25
2023-03-29T09:13:26.477Z,7.07
2023-03-29T09:15:33.584Z,5.57
2023-03-29T09:17:53.721Z,10.32
2023-03-29T09:20:03.436Z,8.40
2023-03-29T09:22:24.303Z,6.43
2023-03-29T09:24:35.176Z,6.55
2023-03-29T09:26:53.182Z,7.95
2023-03-29T09:29:13.213Z,6.97
2023-03-29T09:31:44.394Z,6.63
2023-03-29T09:33:51.368Z,6.88
2023-03-29T09:36:04.858Z,6.20
2023-03-29T09:38:09.513Z,6.50
2023-03-29T09:40:12.825Z,7.47
2023-03-29T09:42:15.432Z,5.55
2023-03-29T09:44:31.199Z,7.72
2023-03-29T09:46:33.219Z,5.70
2023-03-29T09:48:37.833Z,7.97
2023-03-29T09:50:44.455Z,5.35
2023-03-29T09:52:46.473Z,7.40
2023-03-29T09:54:48.224Z,15.20
2023-03-29T09:56:49.689Z,9.52
2023-03-29T09:58:51.354Z,8.32
2023-03-29T10:00:53.186Z,7.15
2023-03-29T10:02:57.105Z,4.97
2023-03-29T10:05:04.348Z,5.55
2023-03-29T10:07:06.322Z,6.70
2023-03-29T10:09:14.013Z,9.15
2023-03-29T10:11:22.128Z,13.57
2023-03-29T10:13:28.399Z,8.60
2023-03-29T10:15:30.801Z,11.35
2023-03-29T10:17:37.995Z,12.23
2023-03-29T10:19:47.271Z,13.23
2023-03-29T10:21:50.031Z,7.88
2023-03-29T10:23:58.245Z,21.08
2023-03-29T10:26:00.706Z,9.32
2023-03-29T10:28:07.589Z,10.55
2023-03-29T10:30:12.908Z,8.55
2023-03-29T10:32:28.239Z,5.70
2023-03-29T10:34:30.554Z,6.47
2023-03-29T10:36:32.079Z,6.00
2023-03-29T10:38:35.323Z,7.93
2023-03-29T10:40:42.236Z,10.55
2023-03-29T10:42:49.895Z,16.30
2023-03-29T10:44:58.541Z,10.45
2023-03-29T10:47:16.825Z,27.92
2023-03-29T10:49:19.774Z,12.50
2023-03-29T10:51:21.234Z,7.20
2023-03-29T10:53:24.235Z,8.40
2023-03-29T10:55:31.469Z,30.50
2023-03-29T10:57:41.346Z,20.42
2023-03-29T11:01:44.061Z,19.88
2023-03-29T11:03:51.935Z,14.57
2023-03-29T11:06:04.267Z,7.00
2023-03-29T11:08:24.700Z,8.30
2023-03-29T11:10:32.324Z,15.63
2023-03-29T11:12:43.044Z,8.30
2023-03-29T11:14:50.592Z,7.03
2023-03-29T11:16:58.714Z,5.82
2023-03-29T11:19:12.070Z,6.50
2023-03-29T11:21:13.662Z,12.75
2023-03-29T11:23:35.230Z,17.73
2023-03-29T11:25:50.537Z,6.82
2023-03-29T11:28:10.682Z,10.23
2023-03-29T11:30:35.244Z,12.45
2023-03-29T11:33:12.160Z,19.58
2023-03-29T11:35:24.887Z,14.18
2023-03-29T11:37:44.415Z,12.82
2023-03-29T11:39:56.558Z,15.35
2023-03-29T11:42:02.238Z,9.27
2023-03-29T11:44:03.641Z,7.30
2023-03-29T11:46:09.986Z,7.63
2023-03-29T11:48:22.424Z,8.00
2023-03-29T11:50:28.137Z,12.82
2023-03-29T11:52:32.781Z,8.95
2023-03-29T11:54:39.601Z,11.02
2023-03-29T11:56:47.265Z,13.43
2023-03-29T11:58:52.673Z,23.48
2023-03-29T12:00:56.273Z,24.58
2023-03-29T12:03:06.991Z,12.88
2023-03-29T12:05:32.172Z,9.35
2023-03-29T12:07:37.272Z,12.25
2023-03-29T12:09:41.420Z,9.60
2023-03-29T12:11:48.804Z,8.02
2023-03-29T12:14:04.955Z,11.85
2023-03-29T12:16:13.759Z,10.40
2023-03-29T12:18:15.305Z,10.30
2023-03-29T12:20:23.465Z,12.63
2023-03-29T12:22:25.004Z,7.90
2023-03-29T12:24:28.519Z,16.27
2023-03-29T12:26:50.798Z,8.15
2023-03-29T12:29:10.306Z,9.20
2023-03-29T12:31:14.457Z,10.02
2023-03-29T12:33:24.773Z,6.30
2023-03-29T12:35:45.118Z,11.65
2023-03-29T12:37:53.209Z,11.77
2023-03-29T12:39:54.709Z,10.48
2023-03-29T12:42:14.645Z,6.97
2023-03-29T12:46:18.801Z,8.30
2023-03-29T12:48:22.651Z,5.55
2023-03-29T12:50:29.008Z,5.07
2023-03-29T12:52:32.047Z,9.07
2023-03-29T12:54:33.827Z,7.18
2023-03-29T12:56:55.654Z,9.20
2023-03-29T12:59:17.542Z,6.30
2023-03-29T13:01:24.064Z,7.38
2023-03-29T13:03:40.253Z,9.50
2023-03-29T13:05:42.000Z,5.57
2023-03-29T13:07:50.049Z,9.85
2023-03-29T13:09:53.311Z,10.32
2023-03-29T13:11:56.180Z,6.60
2023-03-29T13:13:59.860Z,8.57
2023-03-29T13:16:15.583Z,23.95
2023-03-29T13:18:17.036Z,38.60
2023-03-29T13:20:31.991Z,95.93
2023-03-29T13:22:39.606Z,6.55
2023-03-29T13:24:50.127Z,5.85
2023-03-29T13:27:05.751Z,6.78
2023-03-29T13:29:07.311Z,6.30
2023-03-29T13:31:21.766Z,6.93
2023-03-29T13:33:23.158Z,10.98
2023-03-29T13:35:39.880Z,6.93
2023-03-29T13:37:41.296Z,10.52
2023-03-29T13:39:50.966Z,5.90
2023-03-29T13:41:53.287Z,5.80
2023-03-29T13:43:55.876Z,6.68
2023-03-29T13:45:57.270Z,6.03
2023-03-29T13:48:05.546Z,7.30
2023-03-29T13:50:18.652Z,6.13
2023-03-29T13:52:41.138Z,4.82
2023-03-29T13:54:46.617Z,6.18
2023-03-29T13:56:59.565Z,7.32
2023-03-29T13:59:10.597Z,6.80
2023-03-29T14:01:19.730Z,4.85
2023-03-29T14:03:26.282Z,6.97
2023-03-29T14:05:30.876Z,8.95
2023-03-29T14:07:33.378Z,7.43
2023-03-29T14:09:37.146Z,6.95
2023-03-29T14:11:38.627Z,11.50
2023-03-29T14:13:40.104Z,6.20
2023-03-29T14:15:43.722Z,6.80
2023-03-29T14:17:45.171Z,7.30
2023-03-29T14:19:47.273Z,6.72
2023-03-29T14:21:49.382Z,8.23
2023-03-29T14:23:54.731Z,4.85
2023-03-29T14:26:05.546Z,12.90
2023-03-29T14:28:27.228Z,8.88
2023-03-29T14:30:29.316Z,9.23
2023-03-29T14:32:31.581Z,6.07
2023-03-29T14:34:33.178Z,6.78
2023-03-29T14:36:35.214Z,12.00
2023-03-29T14:38:37.729Z,7.13
2023-03-29T14:40:39.168Z,4.68
2023-03-29T14:42:41.369Z,10.82
2023-03-29T14:44:43.140Z,7.18
2023-03-29T14:46:46.081Z,8.75
2023-03-29T14:48:47.766Z,9.30
2023-03-29T14:50:49.774Z,8.63
2023-03-29T14:52:52.397Z,12.10
2023-03-29T14:54:56.678Z,10.25
2023-03-29T14:56:58.810Z,17.25
2023-03-29T14:59:04.160Z,16.85
2023-03-29T15:01:17.188Z,13.95
2023-03-29T15:03:19.291Z,10.48
2023-03-29T15:05:25.610Z,9.23
2023-03-29T15:07:28.291Z,11.75
2023-03-29T15:09:34.240Z,24.05
2023-03-29T15:11:35.979Z,17.42
2023-03-29T15:13:40.195Z,17.85
2023-03-29T15:15:41.846Z,15.15
2023-03-29T15:17:51.721Z,11.98
2023-03-29T15:19:57.268Z,20.20
2023-03-29T15:22:02.976Z,15.00
2023-03-29T15:24:04.831Z,20.52
2023-03-29T15:26:13.632Z,20.10
2023-03-29T15:28:28.915Z,21.70
2023-03-29T15:30:39.290Z,14.35
2023-03-29T15:32:41.779Z,15.20
2023-03-29T15:34:43.743Z,25.25
2023-03-29T15:36:46.379Z,17.60
2023-03-29T15:38:48.442Z,20.92
2023-03-29T15:40:50.501Z,20.98
2023-03-29T15:42:53.419Z,23.95
2023-03-29T15:44:56.289Z,17.17
2023-03-29T15:46:59.830Z,15.82
2023-03-29T15:49:01.705Z,16.00
2023-03-29T15:51:06.455Z,11.02
2023-03-29T15:53:15.214Z,18.13
2023-03-29T15:55:17.272Z,13.00
2023-03-29T15:57:18.828Z,16.20
2023-03-29T15:59:20.498Z,20.40
2023-03-29T16:01:23.754Z,15.60
2023-03-29T16:03:27.339Z,17.73
2023-03-29T16:05:28.921Z,21.05
2023-03-29T16:07:30.438Z,21.77
2023-03-29T16:09:32.414Z,16.45
2023-03-29T16:11:34.109Z,16.95
2023-03-29T16:13:35.671Z,25.83
2023-03-29T16:15:37.332Z,31.90
2023-03-29T16:17:38.795Z,31.52
2023-03-29T16:19:40.286Z,22.85
2023-03-29T16:21:43.149Z,27.63
2023-03-29T16:23:45.774Z,21.45
2023-03-29T16:25:47.534Z,17.33
2023-03-29T16:27:49.386Z,24.50
2023-03-29T16:29:50.972Z,22.80
2023-03-29T16:31:52.908Z,31.55
2023-03-29T16:33:54.592Z,30.13
2023-03-29T16:35:56.870Z,55.13
2023-03-29T16:37:58.381Z,57.75
2023-03-29T16:40:00.450Z,29.17
2023-03-29T16:42:01.941Z,43.08
2023-03-29T16:44:03.753Z,28.30
2023-03-29T16:46:07.599Z,26.35
2023-03-29T16:48:13.465Z,26.15
2023-03-29T16:50:16.238Z,25.90
2023-03-29T16:52:17.710Z,20.70
2023-03-29T16:54:19.150Z,22.38
2023-03-29T16:56:20.787Z,26.17
2023-03-29T16:58:23.240Z,20.77
2023-03-29T17:00:24.791Z,27.88
2023-03-29T17:02:26.650Z,28.52
2023-03-29T17:04:28.187Z,24.67
2023-03-29T17:06:31.870Z,22.40
2023-03-29T17:08:33.596Z,18.20
2023-03-29T17:10:35.023Z,22.30
2023-03-29T17:12:36.655Z,23.77
2023-03-29T17:14:38.240Z,35.80
2023-03-29T17:16:40.144Z,24.70
2023-03-29T17:18:41.736Z,26.52
2023-03-29T17:20:43.276Z,26.10
2023-03-29T17:22:44.910Z,28.63
2023-03-29T17:24:46.411Z,19.02
2023-03-29T17:26:47.824Z,25.10
2023-03-29T17:28:49.783Z,32.75
2023-03-29T17:30:51.334Z,37.10
2023-03-29T17:32:53.698Z,40.13
2023-03-29T17:34:55.333Z,42.90
2023-03-29T17:36:56.792Z,39.90
2023-03-29T17:41:02.841Z,47.67
2023-03-29T17:43:04.309Z,67.57
2023-03-29T17:45:06.195Z,128.23
2023-03-29T17:47:07.693Z,133.60
2023-03-29T17:49:09.236Z,84.30
2023-03-29T17:51:10.787Z,73.93
2023-03-29T17:53:13.362Z,57.90
2023-03-29T17:55:14.930Z,47.97
2023-03-29T17:57:16.817Z,40.80
2023-03-29T17:59:18.302Z,37.03
2023-03-29T18:01:19.868Z,44.33
2023-03-29T18:03:21.659Z,51.85
2023-03-29T18:05:23.135Z,56.15
2023-03-29T18:07:24.580Z,67.32
2023-03-29T18:09:28.007Z,91.05
2023-03-29T18:11:31.729Z,90.65
2023-03-29T18:13:33.184Z,113.88
2023-03-29T18:15:34.634Z,97.95
2023-03-29T18:17:36.400Z,73.40
2023-03-29T18:19:37.826Z,63.42
2023-03-29T18:21:39.516Z,53.03
2023-03-29T18:23:43.963Z,64.68
2023-03-29T18:25:45.376Z,71.32
2023-03-29T18:27:48.002Z,121.72
2023-03-29T18:29:49.467Z,107.45
2023-03-29T18:31:51.064Z,99.75
2023-03-29T18:33:52.505Z,68.50
2023-03-29T18:35:54.064Z,52.55
2023-03-29T18:37:55.524Z,54.08
2023-03-29T18:39:56.957Z,43.13
2023-03-29T18:41:58.366Z,50.38
2023-03-29T18:44:00.305Z,67.22
2023-03-29T18:46:02.268Z,62.70
2023-03-29T18:48:05.489Z,94.53
2023-03-29T18:50:07.860Z,64.78
2023-03-29T18:52:09.855Z,64.80
2023-03-29T18:54:11.664Z,58.00
2023-03-29T18:56:13.091Z,62.08
2023-03-29T18:58:15.178Z,46.65
2023-03-29T19:00:17.589Z,42.90
2023-03-29T19:02:19.263Z,42.60
2023-03-29T19:04:20.880Z,40.88
2023-03-29T19:06:22.441Z,37.35
2023-03-29T19:08:24.381Z,45.10
2023-03-29T19:10:25.823Z,42.88
2023-03-29T19:12:27.218Z,48.63
2023-03-29T19:14:29.358Z,40.67
2023-03-29T19:16:30.769Z,44.13
2023-03-29T19:18:32.734Z,51.85
2023-03-29T19:20:37.638Z,52.05
2023-03-29T19:22:39.236Z,61.75
2023-03-29T19:24:40.710Z,49.63
2023-03-29T19:26:43.605Z,35.97
2023-03-29T19:28:45.117Z,44.75
2023-03-29T19:30:46.655Z,38.58
2023-03-29T19:32:48.341Z,42.58
2023-03-29T19:34:50.344Z,39.50
2023-03-29T19:36:53.621Z,47.05
2023-03-29T19:38:55.681Z,70.28
2023-03-29T19:40:57.261Z,61.72
2023-03-29T19:42:58.668Z,76.97
2023-03-29T19:45:00.033Z,79.07
2023-03-29T19:47:01.536Z,73.38
2023-03-29T19:49:05.150Z,68.80
2023-03-29T19:51:07.988Z,84.90
2023-03-29T19:53:10.177Z,74.38
2023-03-29T19:55:11.705Z,77.95
2023-03-29T19:57:13.193Z,81.95
2023-03-29T19:59:17.665Z,96.70
2023-03-29T20:01:22.676Z,87.95
2023-03-29T20:03:28.237Z,87.78
2023-03-29T20:05:29.961Z,106.55
2023-03-29T20:07:31.438Z,111.47
2023-03-29T20:09:33.302Z,110.00
2023-03-29T20:11:34.784Z,77.78
2023-03-29T20:13:39.183Z,68.75
2023-03-29T20:15:40.785Z,51.33
2023-03-29T20:17:42.296Z,52.75
2023-03-29T20:19:44.108Z,54.47
2023-03-29T20:21:45.635Z,50.15
2023-03-29T20:23:47.453Z,44.47
2023-03-29T20:25:48.989Z,47.38
2023-03-29T20:27:51.608Z,49.25
2023-03-29T20:29:53.022Z,49.08
2023-03-29T20:31:54.533Z,65.80
2023-03-29T20:33:57.549Z,69.68
2023-03-29T20:35:59.358Z,65.68
2023-03-29T20:38:00.889Z,62.60
2023-03-29T20:40:05.338Z,53.38
2023-03-29T20:42:07.018Z,59.03
2023-03-29T20:44:08.434Z,51.78
2023-03-29T20:46:14.746Z,59.17
2023-03-29T20:48:16.690Z,55.90
2023-03-29T20:50:18.970Z,62.60
2023-03-29T20:52:21.255Z,58.88
2023-03-29T20:54:23.779Z,48.03
2023-03-29T20:56:26.145Z,44.53
2023-03-29T20:58:29.127Z,52.25
2023-03-29T21:00:31.564Z,57.40
2023-03-29T21:02:32.989Z,44.30
2023-03-29T21:04:34.509Z,41.00
2023-03-29T21:06:36.336Z,37.63
2023-03-29T21:08:38.748Z,40.10
2023-03-29T21:10:42.498Z,32.47
2023-03-29T21:12:43.905Z,29.83
2023-03-29T21:14:47.469Z,32.50
2023-03-29T21:16:49.041Z,33.05
2023-03-29T21:18:50.532Z,29.38
2023-03-29T21:20:51.994Z,28.42
2023-03-29T21:22:53.505Z,30.75
2023-03-29T21:24:54.924Z,36.35
2023-03-29T21:26:56.337Z,31.27
2023-03-29T21:28:57.779Z,37.65
2023-03-29T21:30:59.235Z,42.35
2023-03-29T21:33:00.997Z,40.20
2023-03-29T21:35:02.480Z,44.65
2023-03-29T21:37:03.957Z,41.92
2023-03-29T21:39:05.778Z,39.08
2023-03-29T21:41:12.052Z,33.53
2023-03-29T21:43:13.541Z,30.15
2023-03-29T21:45:15.043Z,35.08
2023-03-29T21:47:16.457Z,31.17
2023-03-29T21:49:18.153Z,30.95
2023-03-29T21:51:19.679Z,34.85
2023-03-29T21:53:21.480Z,34.72
2023-03-29T21:55:22.957Z,37.50
2023-03-29T21:57:24.488Z,43.47
2023-03-29T21:59:26.098Z,40.65
2023-03-29T22:01:27.616Z,38.22
2023-03-29T22:03:29.343Z,37.67
2023-03-29T22:05:30.868Z,35.70
2023-03-29T22:07:35.274Z,41.55
2023-03-29T22:09:36.738Z,40.03
2023-03-29T22:11:38.669Z,43.70
2023-03-29T22:13:40.749Z,37.28
2023-03-29T22:15:42.690Z,35.53
2023-03-29T22:17:44.200Z,40.30
2023-03-29T22:19:47.566Z,38.65
2023-03-29T22:21:49.085Z,42.38
2023-03-29T22:23:51.805Z,45.17
2023-03-29T22:25:53.198Z,43.17
2023-03-29T22:27:54.575Z,51.63
2023-03-29T22:29:56.081Z,41.47
2023-03-29T22:31:57.611Z,43.58
2023-03-29T22:33:59.834Z,46.22
2023-03-29T22:36:01.738Z,45.47
2023-03-29T22:38:03.253Z,42.63
2023-03-29T22:40:05.065Z,42.42
2023-03-29T22:42:07.274Z,43.00
2023-03-29T22:44:08.841Z,47.33
2023-03-29T22:46:11.234Z,42.28
2023-03-29T22:48:12.706Z,46.05
2023-03-29T22:50:14.198Z,47.20
2023-03-29T22:52:15.797Z,45.03
2023-03-29T22:54:17.266Z,42.42
2023-03-29T22:56:18.738Z,46.08
2023-03-29T22:58:20.205Z,42.13
2023-03-29T23:00:21.643Z,43.33
2023-03-29T23:02:23.073Z,54.38
2023-03-29T23:04:24.564Z,39.00
2023-03-29T23:06:26.341Z,38.33
2023-03-29T23:08:28.312Z,37.90
2023-03-29T23:10:30.572Z,33.85
2023-03-29T23:12:31.973Z,38.83
2023-03-29T23:14:34.005Z,43.97
2023-03-29T23:16:35.429Z,38.38
2023-03-29T23:18:37.673Z,41.35
2023-03-29T23:20:40.218Z,43.13
2023-03-29T23:22:41.600Z,41.45
2023-03-29T23:24:43.849Z,37.97
2023-03-29T23:26:45.542Z,31.20
2023-03-29T23:28:47.110Z,32.15
2023-03-29T23:30:55.747Z,36.78
2023-03-29T23:32:58.272Z,32.70
2023-03-29T23:35:00.254Z,38.40
2023-03-29T23:37:01.684Z,41.50
2023-03-29T23:39:03.342Z,31.23
2023-03-29T23:41:06.142Z,41.17
2023-03-29T23:43:07.881Z,36.20
2023-03-29T23:45:11.290Z,37.00
2023-03-29T23:47:12.711Z,38.17
2023-03-29T23:49:14.692Z,31.88
2023-03-29T23:51:18.894Z,31.13
2023-03-29T23:53:20.982Z,29.77
2023-03-29T23:55:22.589Z,32.92
2023-03-29T23:57:26.781Z,37.03
2023-03-29T23:59:30.689Z,38.83
